Time;durP1;ratioP1;P1;durP2;ratioP2;P2;SDS_P1;SDS_P2;PMS_P1;PMS_P2;Temp;Humidity;BMP_temperature;BMP_pressure;BME280_temperature;BME280_humidity;BME280_pressure;Samples;Min_cycle;Max_cycle;Signal;HPM_P1;HPM_P2
2022/06/01 00:03:22;;;;;;;6.6;10;;;;;;;-133;92.1;65240;;;;
2022/06/01 00:13:21;;;;;;;8.6;11.5;;;;;;;-133;93.1;65230;;;;
2022/06/01 00:24:21;;;;;;;8.6;11.5;;;;;;;-133;92.3;65240;;;;
2022/06/01 00:34:21;;;;;;;8.6;11.5;;;;;;;-133;93.2;65240;;;;
2022/06/01 00:44:21;;;;;;;11.2;14.4;;;;;;;-133;92.5;65240;;;;
2022/06/01 00:55:21;;;;;;;11.2;14.4;;;;;;;-133;91.7;65240;;;;
2022/06/01 01:05:21;;;;;;;11.2;14.4;;;;;;;-133;93.9;65240;;;;
2022/06/01 01:16:21;;;;;;;11.3;16.1;;;;;;;-133;92.6;65230;;;;
2022/06/01 01:27:21;;;;;;;11.3;16.1;;;;;;;-133;92.2;65230;;;;
2022/06/01 01:37:21;;;;;;;11;13.1;;;;;;;-133;92.1;65240;;;;
2022/06/01 01:48:21;;;;;;;11;13.1;;;;;;;-133;91.4;65230;;;;
2022/06/01 01:58:21;;;;;;;11;13.1;;;;;;;-133;90.1;65240;;;;
2022/06/01 02:09:21;;;;;;;7.7;11.5;;;;;;;-133;92;65240;;;;
2022/06/01 02:19:21;;;;;;;7.7;11.5;;;;;;;-133;92.2;65240;;;;
2022/06/01 02:29:21;;;;;;;7.7;11.5;;;;;;;-133;93.2;65240;;;;
2022/06/01 02:40:21;;;;;;;10.2;14;;;;;;;-133;93.1;65230;;;;
2022/06/01 02:51:21;;;;;;;10.2;14;;;;;;;-133;92.9;65240;;;;
2022/06/01 03:02:21;;;;;;;10.2;14;;;;;;;-133;89.5;65230;;;;
2022/06/01 03:12:22;;;;;;;7;10.4;;;;;;;-133;88.7;65230;;;;
2022/06/01 03:22:21;;;;;;;7;10.4;;;;;;;-133;89.1;65230;;;;
2022/06/01 03:33:21;;;;;;;7;10.4;;;;;;;-133;89.7;65230;;;;
2022/06/01 03:43:21;;;;;;;8.6;12.5;;;;;;;-133;88;65230;;;;
2022/06/01 03:53:23;;;;;;;8.6;12.5;;;;;;;-133;87.7;65230;;;;
2022/06/01 04:04:21;;;;;;;8.6;12.5;;;;;;;-133;87.9;65230;;;;
2022/06/01 04:14:21;;;;;;;9.3;13.1;;;;;;;-133;87.7;65230;;;;
2022/06/01 04:25:21;;;;;;;9.3;13.1;;;;;;;-133;87.2;65230;;;;
2022/06/01 04:35:21;;;;;;;9.3;13.1;;;;;;;-133;87.1;65220;;;;
2022/06/01 04:45:21;;;;;;;11;13.3;;;;;;;-133;87.9;65230;;;;
2022/06/01 04:55:22;;;;;;;11;13.3;;;;;;;-133;87.7;65220;;;;
2022/06/01 05:06:21;;;;;;;11;14.1;;;;;;;-133;86;65220;;;;
2022/06/01 05:16:21;;;;;;;11;14.1;;;;;;;-133;84.4;65220;;;;
2022/06/01 05:27:21;;;;;;;11;14.1;;;;;;;-133;84.4;65220;;;;
2022/06/01 05:38:21;;;;;;;10.7;14.3;;;;;;;-133;83.3;65220;;;;
2022/06/01 05:48:21;;;;;;;10.7;14.3;;;;;;;-133;83.4;65220;;;;
2022/06/01 05:58:21;;;;;;;10.7;14.3;;;;;;;-133;82.3;65220;;;;
2022/06/01 06:09:24;;;;;;;9;13.8;;;;;;;-133;81.1;65220;;;;
2022/06/01 06:19:21;;;;;;;9;13.8;;;;;;;-133;81;65220;;;;
2022/06/01 06:29:21;;;;;;;9;13.8;;;;;;;-133;77;65220;;;;
2022/06/01 06:39:21;;;;;;;5.7;9;;;;;;;-133;76.5;65220;;;;
2022/06/01 06:49:21;;;;;;;5.7;9;;;;;;;-133;72.9;65210;;;;
2022/06/01 06:59:21;;;;;;;5.7;9;;;;;;;-133;74.4;65210;;;;
2022/06/01 07:10:21;;;;;;;3.9;7;;;;;;;-133;71.5;65210;;;;
2022/06/01 07:21:21;;;;;;;3.9;7;;;;;;;-133;71.6;65210;;;;
2022/06/01 07:31:21;;;;;;;3.9;7;;;;;;;-133;72.3;65220;;;;
2022/06/01 07:43:25;;;;;;;3.7;6.3;;;;;;;-133;73.8;65220;;;;
2022/06/01 07:52:21;;;;;;;3.7;6.3;;;;;;;-133;76.1;65220;;;;
2022/06/01 08:03:21;;;;;;;3.7;6.3;;;;;;;-133;77.4;65220;;;;
2022/06/01 08:13:21;;;;;;;3;6;;;;;;;-133;79;65220;;;;
2022/06/01 08:24:21;;;;;;;3;6;;;;;;;-133;80.7;65220;;;;
2022/06/01 08:35:21;;;;;;;3;6;;;;;;;-133;77.8;65220;;;;
2022/06/01 08:46:21;;;;;;;3.2;6;;;;;;;-133;76.5;65220;;;;
2022/06/01 08:56:23;;;;;;;3.2;6;;;;;;;-133;77.1;65220;;;;
2022/06/01 09:06:21;;;;;;;2.9;6.1;;;;;;;-133;74.6;65220;;;;
2022/06/01 09:17:21;;;;;;;2.9;6.1;;;;;;;-133;73.7;65220;;;;
2022/06/01 09:27:21;;;;;;;2.9;6.1;;;;;;;-133;75;65220;;;;
2022/06/01 09:38:22;;;;;;;3.1;5.5;;;;;;;-133;72;65220;;;;
2022/06/01 09:49:21;;;;;;;3.1;5.5;;;;;;;-133;75.9;65220;;;;
2022/06/01 10:09:21;;;;;;;3.1;6.2;;;;;;;-133;66.3;65220;;;;
2022/06/01 10:19:21;;;;;;;3.1;6.2;;;;;;;-133;63.5;65220;;;;
2022/06/01 10:29:21;;;;;;;3.1;6.2;;;;;;;-133;60.9;65210;;;;
2022/06/01 10:40:21;;;;;;;3;5.6;;;;;;;-133;62.1;65220;;;;
2022/06/01 10:51:21;;;;;;;3;5.6;;;;;;;-133;56.7;65220;;;;
2022/06/01 11:02:21;;;;;;;3;5.6;;;;;;;-133;54.3;65220;;;;
2022/06/01 11:12:21;;;;;;;2.6;4.7;;;;;;;-133;54.2;65210;;;;
2022/06/01 11:23:21;;;;;;;2.6;4.7;;;;;;;-133;52.2;65210;;;;
2022/06/01 11:33:21;;;;;;;2.6;4.7;;;;;;;-133;53;65210;;;;
2022/06/01 11:44:21;;;;;;;2.3;4.2;;;;;;;-133;44.1;65210;;;;
2022/06/01 11:55:21;;;;;;;2.3;4.2;;;;;;;-133;44.3;65210;;;;
2022/06/01 12:05:21;;;;;;;2.3;4.2;;;;;;;-133;43.9;65210;;;;
2022/06/01 12:15:23;;;;;;;1.5;3;;;;;;;-133;45;65210;;;;
2022/06/01 12:37:21;;;;;;;1.7;4.4;;;;;;;-133;41.5;65210;;;;
2022/06/01 12:48:23;;;;;;;1.7;4.4;;;;;;;-133;39.9;65220;;;;
2022/06/01 12:58:21;;;;;;;1.7;4.4;;;;;;;-133;39.6;65210;;;;
2022/06/01 13:09:21;;;;;;;1.8;4.7;;;;;;;-133;36.8;65210;;;;
2022/06/01 13:20:21;;;;;;;1.8;4.7;;;;;;;-133;37.7;65210;;;;
2022/06/01 13:31:21;;;;;;;1.8;4.7;;;;;;;-133;37.1;65210;;;;
2022/06/01 13:41:21;;;;;;;1.6;4.8;;;;;;;-133;36.3;65220;;;;
2022/06/01 13:52:21;;;;;;;1.6;4.8;;;;;;;-133;35.2;65220;;;;
2022/06/01 14:03:21;;;;;;;1.6;4.8;;;;;;;-133;31.5;65210;;;;
2022/06/01 14:13:21;;;;;;;1.5;3.2;;;;;;;-133;30.9;65210;;;;
2022/06/01 14:24:22;;;;;;;1.5;3.2;;;;;;;-133;32.1;65210;;;;
2022/06/01 14:35:21;;;;;;;1.5;3.2;;;;;;;-133;31.2;65210;;;;
2022/06/01 14:45:21;;;;;;;1.1;2.9;;;;;;;-133;31;65220;;;;
2022/06/01 14:56:21;;;;;;;1.1;2.9;;;;;;;-133;29.7;65220;;;;
2022/06/01 15:06:21;;;;;;;1.5;5;;;;;;;-133;28.5;65210;;;;
2022/06/01 15:17:21;;;;;;;1.5;5;;;;;;;-133;27.1;65210;;;;
2022/06/01 15:28:21;;;;;;;1.5;5;;;;;;;-133;26.4;65210;;;;
2022/06/01 15:49:23;;;;;;;1.5;4;;;;;;;-133;25;65210;;;;
2022/06/01 16:00:23;;;;;;;1.5;4;;;;;;;-133;24.4;65210;;;;
2022/06/01 16:11:25;;;;;;;1.5;3.3;;;;;;;-133;25.4;65220;;;;
2022/06/01 16:21:21;;;;;;;1.5;3.3;;;;;;;-133;24.2;65220;;;;
2022/06/01 16:32:21;;;;;;;1.5;3.3;;;;;;;-133;23.5;65220;;;;
2022/06/01 16:42:22;;;;;;;1.3;3.5;;;;;;;-133;24.9;65220;;;;
2022/06/01 16:52:21;;;;;;;1.3;3.5;;;;;;;-133;25.4;65220;;;;
2022/06/01 17:02:21;;;;;;;1.3;3.5;;;;;;;-133;30.2;65230;;;;
2022/06/01 17:12:23;;;;;;;1.4;3.2;;;;;;;-133;33.1;65230;;;;
2022/06/01 17:23:22;;;;;;;1.4;3.2;;;;;;;-133;36.7;65230;;;;
2022/06/01 17:34:21;;;;;;;1.4;3.2;;;;;;;-133;38.6;65230;;;;
2022/06/01 17:44:21;;;;;;;1.5;3.4;;;;;;;-133;42.6;65240;;;;
2022/06/01 17:55:21;;;;;;;1.5;3.4;;;;;;;-133;45;65240;;;;
2022/06/01 18:06:21;;;;;;;3.3;7.4;;;;;;;-133;48.3;65240;;;;
2022/06/01 18:17:21;;;;;;;3.3;7.4;;;;;;;-133;53.4;65240;;;;
2022/06/01 18:27:21;;;;;;;3.3;7.4;;;;;;;-133;53.8;65240;;;;
2022/06/01 18:38:21;;;;;;;5;9.7;;;;;;;-133;55;65240;;;;
2022/06/01 18:48:21;;;;;;;5;9.7;;;;;;;-133;57.7;65250;;;;
2022/06/01 18:58:21;;;;;;;5;9.7;;;;;;;-133;61.1;65240;;;;
2022/06/01 19:09:21;;;;;;;8.3;11.1;;;;;;;-133;62.3;65250;;;;
2022/06/01 19:19:21;;;;;;;8.3;11.1;;;;;;;-133;63.7;65250;;;;
2022/06/01 19:29:21;;;;;;;8.3;11.1;;;;;;;-133;65.9;65250;;;;
2022/06/01 19:50:21;;;;;;;10.9;14.3;;;;;;;-133;67.2;65250;;;;
2022/06/01 20:01:21;;;;;;;10.9;14.3;;;;;;;-133;66.8;65250;;;;
2022/06/01 20:22:22;;;;;;;5.6;9.4;;;;;;;-133;69.8;65250;;;;
2022/06/01 20:32:21;;;;;;;5.6;9.4;;;;;;;-133;69.9;65250;;;;
2022/06/01 20:43:21;;;;;;;3.9;7.3;;;;;;;-133;69.7;65250;;;;
2022/06/01 20:54:21;;;;;;;3.9;7.3;;;;;;;-133;71.5;65250;;;;
2022/06/01 21:04:22;;;;;;;3.9;7.3;;;;;;;-133;71.6;65250;;;;
2022/06/01 21:15:22;;;;;;;4.6;8.4;;;;;;;-133;76.8;65250;;;;
2022/06/01 21:25:21;;;;;;;4.6;8.4;;;;;;;-133;74.1;65260;;;;
2022/06/01 21:36:21;;;;;;;4.1;7.9;;;;;;;-133;74.6;65250;;;;
2022/06/01 21:47:21;;;;;;;4.1;7.9;;;;;;;-133;73.4;65250;;;;
2022/06/01 21:57:21;;;;;;;4.1;7.9;;;;;;;-133;76.8;65250;;;;
2022/06/01 22:07:21;;;;;;;6;9.2;;;;;;;-133;80.8;65260;;;;
2022/06/01 22:18:21;;;;;;;6;9.2;;;;;;;-133;80;65250;;;;
2022/06/01 22:28:21;;;;;;;6;9.2;;;;;;;-133;81.8;65260;;;;
2022/06/01 22:38:22;;;;;;;6.9;10.1;;;;;;;-133;81.7;65250;;;;
2022/06/01 22:49:21;;;;;;;6.9;10.1;;;;;;;-133;81.5;65260;;;;
2022/06/01 22:59:21;;;;;;;6.9;10.1;;;;;;;-133;84.3;65260;;;;
2022/06/01 23:10:21;;;;;;;10.1;14.2;;;;;;;-133;84.8;65260;;;;
2022/06/01 23:21:21;;;;;;;10.1;14.2;;;;;;;-133;85.8;65260;;;;
2022/06/01 23:31:21;;;;;;;10.1;14.2;;;;;;;-133;87.6;65250;;;;
2022/06/01 23:42:21;;;;;;;10.3;14.7;;;;;;;-133;86.9;65250;;;;
2022/06/01 23:52:21;;;;;;;10.3;14.7;;;;;;;-133;87.1;65250;;;;
